createdAt,value
2023-02-01T00:00:54.112Z,60.10
2023-02-01T00:01:54.283Z,60.91
2023-02-01T00:02:54.091Z,60.59
2023-02-01T00:03:54.114Z,61.55
2023-02-01T00:04:54.070Z,58.97
2023-02-01T00:05:54.082Z,59.78
2023-02-01T00:06:54.120Z,59.46
2023-02-01T00:07:54.032Z,61.39
2023-02-01T00:08:54.023Z,61.23
2023-02-01T00:09:54.004Z,63.00
2023-02-01T00:10:53.998Z,61.39
2023-02-01T00:12:01.027Z,59.46
2023-02-01T00:12:53.973Z,60.91
2023-02-01T00:13:55.086Z,61.39
2023-02-01T00:14:55.074Z,59.94
2023-02-01T00:15:55.109Z,59.14
2023-02-01T00:16:55.081Z,64.13
2023-02-01T00:17:55.046Z,62.84
2023-02-01T00:18:55.061Z,61.39
2023-02-01T00:19:55.021Z,61.71
2023-02-01T00:20:55.010Z,63.49
2023-02-01T00:21:54.994Z,64.13
2023-02-01T00:22:54.998Z,63.16
2023-02-01T00:23:55.046Z,63.97
2023-02-01T00:24:54.957Z,63.00
2023-02-01T00:25:54.986Z,62.52
2023-02-01T00:26:55.057Z,64.45
2023-02-01T00:27:54.941Z,63.00
2023-02-01T00:28:54.967Z,62.52
2023-02-01T00:29:54.913Z,62.04
2023-02-01T00:30:55.004Z,62.84
2023-02-01T00:31:55.038Z,63.33
2023-02-01T00:32:54.891Z,62.52
2023-02-01T00:33:54.865Z,62.04
2023-02-01T00:34:54.859Z,61.55
2023-02-01T00:35:54.845Z,61.71
2023-02-01T00:36:54.871Z,61.55
2023-02-01T00:37:54.823Z,64.29
2023-02-01T00:38:54.815Z,63.81
2023-02-01T00:39:54.811Z,63.49
2023-02-01T00:40:54.808Z,63.49
2023-02-01T00:41:54.809Z,65.26
2023-02-01T00:42:54.775Z,62.68
2023-02-01T00:43:54.765Z,65.10
2023-02-01T00:44:54.743Z,63.97
2023-02-01T00:45:54.736Z,63.49
2023-02-01T00:46:54.822Z,64.94
2023-02-01T00:47:54.725Z,64.61
2023-02-01T00:48:54.708Z,63.81
2023-02-01T00:49:54.695Z,65.42
2023-02-01T00:50:54.691Z,65.26
2023-02-01T00:51:54.713Z,65.90
2023-02-01T00:52:54.678Z,62.36
2023-02-01T00:53:54.695Z,62.68
2023-02-01T00:54:54.663Z,64.61
2023-02-01T00:55:54.644Z,63.00
2023-02-01T00:56:54.617Z,63.00
2023-02-01T00:57:54.614Z,63.81
2023-02-01T00:58:54.643Z,63.16
2023-02-01T00:59:54.609Z,63.97
2023-02-01T01:00:54.611Z,63.65
2023-02-01T01:01:54.661Z,64.94
2023-02-01T01:02:54.570Z,62.84
2023-02-01T01:03:54.598Z,61.71
2023-02-01T01:04:54.541Z,65.58
2023-02-01T01:05:54.529Z,63.16
2023-02-01T01:06:55.520Z,63.81
2023-02-01T01:07:54.521Z,65.10
2023-02-01T01:08:54.519Z,63.33
2023-02-01T01:09:54.485Z,63.97
2023-02-01T01:10:54.477Z,65.58
2023-02-01T01:11:54.467Z,63.97
2023-02-01T01:12:54.462Z,63.33
2023-02-01T01:13:54.489Z,65.10
2023-02-01T01:14:54.436Z,64.45
2023-02-01T01:15:54.466Z,62.68
2023-02-01T01:16:54.421Z,62.84
2023-02-01T01:17:54.403Z,63.33
2023-02-01T01:18:54.391Z,64.29
2023-02-01T01:19:54.396Z,65.10
2023-02-01T01:20:54.382Z,64.13
2023-02-01T01:21:54.373Z,63.00
2023-02-01T01:22:54.354Z,63.00
2023-02-01T01:23:54.326Z,63.81
2023-02-01T01:24:54.326Z,62.84
2023-02-01T01:25:54.322Z,62.20
2023-02-01T01:26:54.395Z,61.55
2023-02-01T01:27:54.296Z,63.49
2023-02-01T01:28:54.277Z,61.87
2023-02-01T01:29:54.266Z,62.04
2023-02-01T01:30:54.435Z,65.58
2023-02-01T01:31:54.398Z,64.45
2023-02-01T01:32:54.231Z,61.39
2023-02-01T01:33:54.223Z,61.07
2023-02-01T01:34:54.223Z,60.91
2023-02-01T01:35:54.199Z,61.55
2023-02-01T01:36:54.214Z,61.71
2023-02-01T01:37:54.200Z,61.87
2023-02-01T01:38:54.167Z,63.33
2023-02-01T01:39:54.152Z,59.30
2023-02-01T01:40:54.148Z,59.46
2023-02-01T01:41:54.135Z,62.04
2023-02-01T01:42:54.137Z,60.42
2023-02-01T01:43:54.101Z,60.59
2023-02-01T01:44:55.098Z,61.55
2023-02-01T01:45:54.098Z,58.97
2023-02-01T01:46:54.122Z,59.62
2023-02-01T01:47:54.081Z,60.26
2023-02-01T01:48:54.069Z,62.04
2023-02-01T01:49:54.044Z,60.59
2023-02-01T01:50:54.032Z,61.71
2023-02-01T01:51:54.029Z,62.84
2023-02-01T01:52:54.035Z,61.55
2023-02-01T01:53:54.014Z,61.07
2023-02-01T01:54:54.004Z,62.20
2023-02-01T01:55:53.991Z,62.20
2023-02-01T01:56:53.969Z,62.68
2023-02-01T01:57:53.959Z,61.39
2023-02-01T01:58:53.950Z,61.55
2023-02-01T01:59:53.933Z,62.04
2023-02-01T02:00:53.985Z,61.39
2023-02-01T02:01:53.963Z,63.00
2023-02-01T02:02:53.914Z,63.81
2023-02-01T02:03:53.897Z,61.71
2023-02-01T02:04:53.882Z,62.36
2023-02-01T02:05:53.876Z,62.52
2023-02-01T02:06:53.860Z,62.04
2023-02-01T02:07:54.877Z,60.91
2023-02-01T02:08:53.832Z,61.39
2023-02-01T02:10:00.429Z,61.55
2023-02-01T02:10:55.816Z,63.16
2023-02-01T02:11:53.800Z,63.16
2023-02-01T02:12:53.809Z,63.16
2023-02-01T02:13:53.792Z,63.97
2023-02-01T02:14:53.774Z,63.00
2023-02-01T02:15:53.779Z,62.36
2023-02-01T02:16:53.782Z,61.71
2023-02-01T02:17:53.754Z,61.71
2023-02-01T02:18:53.732Z,61.23
2023-02-01T02:19:53.715Z,61.23
2023-02-01T02:20:53.703Z,62.68
2023-02-01T02:21:53.721Z,61.55
2023-02-01T02:22:53.704Z,62.52
2023-02-01T02:23:53.674Z,62.84
2023-02-01T02:24:53.665Z,62.84
2023-02-01T02:25:53.664Z,64.94
2023-02-01T02:26:53.659Z,62.52
2023-02-01T02:27:53.645Z,63.00
2023-02-01T02:28:53.616Z,62.84
2023-02-01T02:29:53.600Z,61.39
2023-02-01T02:30:53.641Z,61.71
2023-02-01T02:31:53.644Z,62.68
2023-02-01T02:32:53.598Z,62.68
2023-02-01T02:33:53.563Z,63.33
2023-02-01T02:34:53.551Z,63.33
2023-02-01T02:35:53.537Z,62.84
2023-02-01T02:36:53.533Z,62.36
2023-02-01T02:37:53.532Z,68.16
2023-02-01T02:38:53.513Z,71.22
2023-02-01T02:39:53.513Z,65.74
2023-02-01T02:40:53.506Z,65.74
2023-02-01T02:41:53.491Z,65.74
2023-02-01T02:42:53.488Z,69.93
2023-02-01T02:43:53.514Z,63.97
2023-02-01T02:44:53.454Z,63.97
2023-02-01T02:45:53.445Z,64.45
2023-02-01T02:46:53.432Z,63.33
2023-02-01T02:47:53.455Z,65.10
2023-02-01T02:48:53.407Z,66.23
2023-02-01T02:49:53.400Z,65.26
2023-02-01T02:50:53.410Z,67.84
2023-02-01T02:51:53.406Z,66.87
2023-02-01T02:52:53.381Z,66.87
2023-02-01T02:53:53.345Z,63.97
2023-02-01T02:54:53.337Z,65.26
2023-02-01T02:55:53.350Z,65.74
2023-02-01T02:56:53.317Z,66.23
2023-02-01T02:57:53.334Z,68.00
2023-02-01T02:58:53.297Z,66.55
2023-02-01T02:59:53.275Z,67.84
2023-02-01T03:00:53.314Z,66.71
2023-02-01T03:01:53.261Z,66.23
2023-02-01T03:02:53.354Z,67.51
2023-02-01T03:03:53.252Z,65.10
2023-02-01T03:04:53.237Z,66.23
2023-02-01T03:05:53.216Z,63.49
2023-02-01T03:06:53.209Z,64.29
2023-02-01T03:07:53.235Z,66.39
2023-02-01T03:08:53.194Z,66.55
2023-02-01T03:09:53.177Z,67.84
2023-02-01T03:10:53.180Z,67.03
2023-02-01T03:11:53.177Z,66.23
2023-02-01T03:12:53.177Z,66.23
2023-02-01T03:13:53.146Z,65.90
2023-02-01T03:14:53.123Z,67.03
2023-02-01T03:15:53.140Z,65.58
2023-02-01T03:16:53.198Z,65.74
2023-02-01T03:17:53.111Z,66.06
2023-02-01T03:18:53.084Z,67.35
2023-02-01T03:19:53.079Z,66.55
2023-02-01T03:20:53.057Z,66.87
2023-02-01T03:21:53.052Z,65.90
2023-02-01T03:22:53.057Z,66.55
2023-02-01T03:23:53.039Z,65.74
2023-02-01T03:24:53.050Z,66.23
2023-02-01T03:25:54.008Z,64.94
2023-02-01T03:26:53.049Z,66.06
2023-02-01T03:27:53.002Z,64.94
2023-02-01T03:28:52.976Z,63.81
2023-02-01T03:29:52.970Z,65.42
2023-02-01T03:30:52.990Z,64.78
2023-02-01T03:31:52.974Z,66.06
2023-02-01T03:32:52.946Z,62.84
2023-02-01T03:33:52.925Z,63.81
2023-02-01T03:34:52.912Z,64.13
2023-02-01T03:35:52.915Z,64.78
2023-02-01T03:36:52.888Z,65.10
2023-02-01T03:37:52.895Z,64.78
2023-02-01T03:38:52.879Z,64.13
2023-02-01T03:39:52.861Z,64.94
2023-02-01T03:40:52.851Z,63.00
2023-02-01T03:41:52.847Z,61.71
2023-02-01T03:42:52.857Z,60.75
2023-02-01T03:43:52.921Z,62.52
2023-02-01T03:44:52.810Z,62.36
2023-02-01T03:45:52.868Z,62.84
2023-02-01T03:46:52.791Z,63.97
2023-02-01T03:47:52.791Z,63.81
2023-02-01T03:48:52.764Z,63.65
2023-02-01T03:49:52.758Z,64.45
2023-02-01T03:50:52.754Z,63.00
2023-02-01T03:51:52.779Z,63.97
2023-02-01T03:52:53.797Z,66.71
2023-02-01T03:53:52.722Z,66.39
2023-02-01T03:54:52.702Z,64.94
2023-02-01T03:55:52.695Z,63.81
2023-02-01T03:56:52.705Z,65.74
2023-02-01T03:57:52.687Z,65.58
2023-02-01T03:58:52.649Z,64.13
2023-02-01T03:59:52.654Z,65.10
2023-02-01T04:00:52.656Z,63.97
2023-02-01T04:01:52.628Z,64.94
2023-02-01T04:02:52.626Z,65.42
2023-02-01T04:03:52.638Z,65.58
2023-02-01T04:04:52.599Z,64.94
2023-02-01T04:05:52.589Z,66.39
2023-02-01T04:06:52.583Z,65.42
2023-02-01T04:07:52.567Z,64.94
2023-02-01T04:08:52.558Z,64.78
2023-02-01T04:09:52.542Z,63.97
2023-02-01T04:10:52.540Z,63.33
2023-02-01T04:11:52.526Z,66.71
2023-02-01T04:12:52.531Z,65.74
2023-02-01T04:13:52.497Z,66.87
2023-02-01T04:14:52.482Z,65.58
2023-02-01T04:15:52.470Z,66.23
2023-02-01T04:16:52.530Z,66.71
2023-02-01T04:17:52.468Z,66.71
2023-02-01T04:20:37.692Z,67.35
2023-02-01T04:21:37.664Z,66.06
2023-02-01T04:22:37.665Z,67.35
2023-02-01T04:23:37.644Z,66.55
2023-02-01T04:24:37.650Z,67.03
2023-02-01T04:25:38.742Z,67.51
2023-02-01T04:26:38.784Z,68.16
2023-02-01T04:29:25.043Z,66.39
2023-02-01T04:30:25.363Z,66.23
2023-02-01T04:31:26.277Z,68.16
2023-02-01T04:32:26.097Z,68.00
2023-02-01T04:33:26.105Z,67.51
2023-02-01T04:34:26.093Z,66.87
2023-02-01T04:35:26.080Z,66.87
2023-02-01T04:36:26.056Z,68.96
2023-02-01T04:37:26.066Z,67.35
2023-02-01T04:38:26.071Z,66.55
2023-02-01T04:39:26.055Z,66.23
2023-02-01T04:40:26.171Z,67.19
2023-02-01T04:41:26.031Z,68.00
2023-02-01T04:42:26.013Z,67.68
2023-02-01T04:43:26.019Z,66.87
2023-02-01T04:44:25.972Z,68.16
2023-02-01T04:45:25.992Z,67.51
2023-02-01T04:46:26.005Z,66.87
2023-02-01T04:47:25.934Z,67.68
2023-02-01T04:48:25.951Z,68.80
2023-02-01T04:49:25.917Z,67.51
2023-02-01T04:50:25.925Z,67.35
2023-02-01T04:51:25.896Z,67.84
2023-02-01T04:52:25.882Z,67.51
2023-02-01T04:53:25.866Z,66.87
2023-02-01T04:54:25.845Z,67.35
2023-02-01T04:55:25.877Z,68.64
2023-02-01T04:56:25.835Z,69.29
2023-02-01T04:57:25.824Z,66.23
2023-02-01T04:58:25.822Z,68.48
2023-02-01T04:59:25.798Z,68.32
2023-02-01T05:00:25.924Z,66.71
2023-02-01T05:01:26.455Z,67.03
2023-02-01T05:02:25.762Z,66.87
2023-02-01T05:03:26.809Z,66.23
2023-02-01T05:04:25.758Z,66.87
2023-02-01T05:05:25.746Z,67.51
2023-02-01T05:06:25.731Z,67.51
2023-02-01T05:07:25.704Z,67.51
2023-02-01T05:08:25.701Z,68.00
2023-02-01T05:09:25.687Z,68.64
2023-02-01T05:10:25.754Z,68.32
2023-02-01T05:11:25.664Z,68.32
2023-02-01T05:12:25.649Z,67.84
2023-02-01T05:13:25.640Z,67.68
2023-02-01T05:14:25.649Z,69.77
2023-02-01T05:15:25.642Z,67.03
2023-02-01T05:16:25.613Z,68.00
2023-02-01T05:17:25.599Z,67.51
2023-02-01T05:18:25.609Z,70.42
2023-02-01T05:19:25.576Z,69.29
2023-02-01T05:20:26.582Z,66.55
2023-02-01T05:21:25.558Z,68.16
2023-02-01T05:22:25.548Z,68.96
2023-02-01T05:23:25.555Z,69.45
2023-02-01T05:24:25.517Z,68.00
2023-02-01T05:25:25.517Z,69.93
2023-02-01T05:26:25.541Z,69.61
2023-02-01T05:27:25.492Z,70.58
2023-02-01T05:28:25.496Z,70.09
2023-02-01T05:29:25.468Z,69.61
2023-02-01T05:30:25.717Z,69.29
2023-02-01T05:31:25.488Z,69.13
2023-02-01T05:32:25.498Z,69.29
2023-02-01T05:33:25.446Z,69.61
2023-02-01T05:34:25.429Z,70.90
2023-02-01T05:35:25.439Z,69.29
2023-02-01T05:36:25.385Z,69.45
2023-02-01T05:37:25.387Z,67.51
2023-02-01T05:38:25.396Z,69.13
2023-02-01T05:39:25.362Z,70.42
2023-02-01T05:40:25.812Z,69.93
2023-02-01T05:41:25.349Z,69.45
2023-02-01T05:42:25.325Z,70.42
2023-02-01T05:43:25.329Z,70.25
2023-02-01T05:44:25.304Z,71.06
2023-02-01T05:45:25.294Z,69.45
2023-02-01T05:46:25.315Z,69.45
2023-02-01T05:47:25.286Z,68.80
2023-02-01T05:48:25.276Z,69.45
2023-02-01T05:49:25.256Z,69.93
2023-02-01T05:50:25.435Z,70.09
2023-02-01T05:51:25.221Z,70.09
2023-02-01T05:52:25.251Z,69.77
2023-02-01T05:53:25.218Z,71.38
2023-02-01T05:54:25.192Z,69.13
2023-02-01T05:55:25.182Z,70.74
2023-02-01T05:56:25.170Z,71.06
2023-02-01T05:57:25.150Z,69.45
2023-02-01T05:58:25.158Z,70.74
2023-02-01T05:59:25.116Z,71.06
2023-02-01T06:00:26.475Z,70.25
2023-02-01T06:01:25.111Z,69.61
2023-02-01T06:02:25.154Z,71.70
2023-02-01T06:03:25.104Z,70.90
2023-02-01T06:04:25.081Z,70.74
2023-02-01T06:05:25.069Z,70.09
2023-02-01T06:06:25.055Z,70.25
2023-02-01T06:07:25.055Z,69.61
2023-02-01T06:08:25.048Z,70.25
2023-02-01T06:09:25.019Z,71.06
2023-02-01T06:10:25.409Z,71.06
2023-02-01T06:11:32.445Z,70.42
2023-02-01T06:12:26.986Z,71.06
2023-02-01T06:13:24.995Z,71.54
2023-02-01T06:14:24.967Z,71.87
2023-02-01T06:15:24.948Z,71.54
2023-02-01T06:16:24.985Z,70.74
2023-02-01T06:17:24.940Z,70.74
2023-02-01T06:18:24.952Z,72.19
2023-02-01T06:19:24.912Z,71.87
2023-02-01T06:20:25.233Z,71.87
2023-02-01T06:21:25.141Z,72.51
2023-02-01T06:22:24.886Z,72.35
2023-02-01T06:23:24.899Z,70.90
2023-02-01T06:24:24.855Z,71.06
2023-02-01T06:25:24.853Z,71.87
2023-02-01T06:26:24.867Z,71.87
2023-02-01T06:27:24.834Z,72.03
2023-02-01T06:28:24.824Z,72.83
2023-02-01T06:29:24.824Z,71.22
2023-02-01T06:30:25.108Z,70.58
2023-02-01T06:31:24.845Z,70.58
2023-02-01T06:32:24.770Z,70.25
2023-02-01T06:33:24.770Z,71.38
2023-02-01T06:34:24.740Z,71.22
2023-02-01T06:35:24.731Z,69.93
2023-02-01T06:36:24.733Z,70.90
2023-02-01T06:37:24.700Z,71.70
2023-02-01T06:38:24.698Z,72.03
2023-02-01T06:39:24.692Z,70.25
2023-02-01T06:40:25.030Z,70.90
2023-02-01T06:41:24.678Z,72.03
2023-02-01T06:42:24.653Z,72.03
2023-02-01T06:43:24.631Z,72.19
2023-02-01T06:44:24.649Z,69.29
2023-02-01T06:45:24.626Z,69.93
2023-02-01T06:46:24.666Z,69.61
2023-02-01T06:47:24.596Z,71.06
2023-02-01T06:48:24.581Z,69.93
2023-02-01T06:49:24.584Z,70.25
2023-02-01T06:50:24.892Z,69.45
2023-02-01T06:51:24.562Z,70.25
2023-02-01T06:52:24.534Z,70.25
2023-02-01T06:53:24.530Z,68.00
2023-02-01T06:54:24.538Z,69.45
2023-02-01T06:55:24.552Z,69.61
2023-02-01T06:56:24.522Z,69.61
2023-02-01T06:57:24.507Z,69.45
2023-02-01T06:58:24.534Z,70.42
2023-02-01T06:59:24.511Z,69.45
2023-02-01T07:00:24.880Z,68.64
2023-02-01T07:01:24.471Z,68.80
2023-02-01T07:02:24.549Z,69.29
2023-02-01T07:03:24.418Z,68.96
2023-02-01T07:04:24.427Z,70.25
2023-02-01T07:05:24.395Z,69.93
2023-02-01T07:06:24.385Z,69.77
2023-02-01T07:07:24.375Z,67.68
2023-02-01T07:08:24.371Z,68.16
2023-02-01T07:09:24.373Z,70.58
2023-02-01T07:10:24.830Z,69.45
2023-02-01T07:11:24.334Z,68.32
2023-02-01T07:12:24.325Z,68.48
2023-02-01T07:13:24.308Z,68.80
2023-02-01T07:14:24.326Z,69.45
2023-02-01T07:15:25.415Z,70.09
2023-02-01T07:16:25.316Z,70.58
2023-02-01T07:17:24.265Z,69.13
2023-02-01T07:18:24.260Z,68.96
2023-02-01T07:19:24.248Z,70.58
2023-02-01T07:20:56.637Z,70.09
2023-02-01T07:21:24.214Z,70.90
2023-02-01T07:22:24.208Z,68.96
2023-02-01T07:23:24.190Z,68.96
2023-02-01T07:24:24.203Z,70.25
2023-02-01T07:25:24.174Z,71.06
2023-02-01T07:26:24.200Z,70.42
2023-02-01T07:27:24.148Z,69.45
2023-02-01T07:28:24.143Z,68.80
2023-02-01T07:29:24.144Z,70.42
2023-02-01T07:30:24.540Z,70.25
2023-02-01T07:31:24.131Z,70.42
2023-02-01T07:32:24.130Z,70.42
2023-02-01T07:33:26.002Z,70.25
2023-02-01T07:34:24.113Z,69.13
2023-02-01T07:35:24.080Z,69.29
2023-02-01T07:36:24.062Z,70.74
2023-02-01T07:37:24.050Z,71.06
2023-02-01T07:38:24.027Z,70.09
2023-02-01T07:39:24.030Z,71.87
2023-02-01T07:40:24.363Z,70.42
2023-02-01T07:41:24.010Z,71.54
2023-02-01T07:42:23.997Z,70.74
2023-02-01T07:43:23.976Z,71.38
2023-02-01T07:44:24.952Z,71.22
2023-02-01T07:45:24.996Z,70.42
2023-02-01T07:46:23.944Z,70.25
2023-02-01T07:47:23.942Z,72.03
2023-02-01T07:48:23.920Z,71.38
2023-02-01T07:49:23.942Z,71.87
2023-02-01T07:50:24.189Z,71.70
2023-02-01T07:51:23.899Z,71.70
2023-02-01T07:52:23.886Z,72.99
2023-02-01T07:53:23.873Z,71.22
2023-02-01T07:54:23.867Z,72.35
2023-02-01T07:55:23.861Z,72.99
2023-02-01T07:56:23.841Z,71.70
2023-02-01T07:57:23.824Z,71.87
2023-02-01T07:58:23.828Z,71.22
2023-02-01T07:59:23.821Z,71.70
2023-02-01T08:00:24.220Z,72.99
2023-02-01T08:01:23.880Z,72.83
2023-02-01T08:02:23.800Z,70.90
2023-02-01T08:03:23.762Z,71.70
2023-02-01T08:04:23.782Z,72.35
2023-02-01T08:05:23.743Z,72.51
2023-02-01T08:06:23.729Z,71.38
2023-02-01T08:07:23.730Z,71.22
2023-02-01T08:08:23.706Z,71.87
2023-02-01T08:09:23.723Z,70.58
2023-02-01T08:10:24.045Z,70.42
2023-02-01T08:11:23.691Z,71.87
2023-02-01T08:12:24.956Z,71.54
2023-02-01T08:13:23.659Z,71.06
2023-02-01T08:14:23.662Z,71.70
2023-02-01T08:15:23.648Z,69.93
2023-02-01T08:16:23.650Z,71.54
2023-02-01T08:17:23.638Z,71.38
2023-02-01T08:18:23.627Z,70.90
2023-02-01T08:19:23.613Z,72.35
2023-02-01T08:20:23.940Z,70.74
2023-02-01T08:21:23.581Z,71.54
2023-02-01T08:22:23.566Z,69.61
2023-02-01T08:23:23.551Z,70.90
2023-02-01T08:24:23.560Z,71.38
2023-02-01T08:25:23.531Z,71.38
2023-02-01T08:26:23.542Z,71.38
2023-02-01T08:27:23.522Z,71.87
2023-02-01T08:28:23.504Z,70.09
2023-02-01T08:29:23.507Z,69.61
2023-02-01T08:30:23.837Z,70.09
2023-02-01T08:31:23.478Z,68.96
2023-02-01T08:32:23.453Z,71.22
2023-02-01T08:33:23.445Z,72.83
2023-02-01T08:34:23.459Z,69.61
2023-02-01T08:35:27.889Z,71.54
2023-02-01T08:36:25.415Z,71.06
2023-02-01T08:37:23.403Z,71.22
2023-02-01T08:38:23.392Z,71.06
2023-02-01T08:39:23.400Z,71.22
2023-02-01T08:40:23.616Z,70.90
2023-02-01T08:41:23.382Z,72.83
2023-02-01T08:42:23.357Z,71.38
2023-02-01T08:43:23.343Z,71.70
2023-02-01T08:44:23.348Z,71.38
2023-02-01T08:45:23.319Z,69.77
2023-02-01T08:46:23.396Z,70.42
2023-02-01T08:47:23.328Z,71.22
2023-02-01T08:48:23.280Z,71.06
2023-02-01T08:49:23.307Z,71.70
2023-02-01T08:50:23.561Z,70.58
2023-02-01T08:51:23.259Z,70.90
2023-02-01T08:52:23.238Z,71.38
2023-02-01T08:53:23.222Z,72.51
2023-02-01T08:54:23.231Z,72.03
2023-02-01T08:55:24.203Z,72.67
2023-02-01T08:56:23.246Z,72.03
2023-02-01T08:57:23.208Z,71.22
2023-02-01T08:58:23.164Z,69.77
2023-02-01T08:59:23.179Z,72.19
2023-02-01T09:00:23.420Z,72.03
2023-02-01T09:01:23.172Z,71.38
2023-02-01T09:02:23.127Z,69.77
2023-02-01T09:03:23.113Z,69.93
2023-02-01T09:04:23.171Z,72.19
2023-02-01T09:05:23.145Z,72.51
2023-02-01T09:06:23.074Z,72.03
2023-02-01T09:07:23.064Z,70.42
2023-02-01T09:08:23.060Z,70.42
2023-02-01T09:09:23.056Z,71.06
2023-02-01T09:10:34.490Z,70.74
2023-02-01T09:11:25.017Z,70.58
2023-02-01T09:12:23.008Z,70.09
2023-02-01T09:13:22.996Z,71.22
2023-02-01T09:14:23.003Z,70.09
2023-02-01T09:15:22.975Z,70.74
2023-02-01T09:16:22.982Z,71.22
2023-02-01T09:17:22.952Z,68.80
2023-02-01T09:18:22.948Z,72.03
2023-02-01T09:19:26.339Z,71.54
2023-02-01T09:20:24.303Z,71.06
2023-02-01T09:21:22.912Z,69.77
2023-02-01T09:22:22.903Z,69.61
2023-02-01T09:23:22.896Z,70.58
2023-02-01T09:24:22.899Z,71.38
2023-02-01T09:25:22.982Z,70.58
2023-02-01T09:26:31.359Z,71.06
2023-02-01T09:27:24.844Z,69.13
2023-02-01T09:28:22.849Z,69.93
2023-02-01T09:29:22.841Z,71.70
2023-02-01T09:30:23.160Z,70.42
2023-02-01T09:31:22.909Z,70.09
2023-02-01T09:32:22.868Z,71.38
2023-02-01T09:33:22.787Z,71.70
2023-02-01T09:34:22.797Z,71.54
2023-02-01T09:35:22.772Z,70.09
2023-02-01T09:36:22.760Z,70.74
2023-02-01T09:37:22.753Z,71.54
2023-02-01T09:38:22.735Z,70.42
2023-02-01T09:39:22.763Z,71.22
2023-02-01T09:40:23.175Z,70.90
2023-02-01T09:41:22.738Z,71.54
2023-02-01T09:42:22.702Z,71.38
2023-02-01T09:43:22.688Z,71.54
2023-02-01T09:44:25.559Z,70.58
2023-02-01T09:45:22.692Z,72.67
2023-02-01T09:46:22.703Z,72.51
2023-02-01T09:47:22.668Z,72.19
2023-02-01T09:48:22.650Z,71.06
2023-02-01T09:49:22.630Z,71.87
2023-02-01T09:50:23.030Z,72.67
2023-02-01T09:51:22.603Z,71.06
2023-02-01T09:52:22.605Z,71.87
2023-02-01T09:53:22.593Z,71.22
2023-02-01T09:54:22.586Z,70.42
2023-02-01T09:55:22.585Z,70.74
2023-02-01T09:56:22.560Z,71.38
2023-02-01T09:57:22.540Z,71.06
2023-02-01T09:58:22.531Z,71.22
2023-02-01T09:59:22.549Z,70.42
2023-02-01T10:00:22.875Z,70.74
2023-02-01T10:01:22.537Z,70.25
2023-02-01T10:02:22.512Z,70.58
2023-02-01T10:03:22.500Z,71.87
2023-02-01T10:04:22.464Z,71.22
2023-02-01T10:05:22.473Z,71.70
2023-02-01T10:06:22.452Z,71.22
2023-02-01T10:07:22.436Z,69.77
2023-02-01T10:08:22.433Z,68.96
2023-02-01T10:09:22.421Z,69.45
2023-02-01T10:10:22.771Z,70.74
2023-02-01T10:11:22.435Z,71.38
2023-02-01T10:12:22.390Z,71.38
2023-02-01T10:13:22.378Z,69.45
2023-02-01T10:14:22.369Z,69.93
2023-02-01T10:15:22.815Z,71.06
2023-02-01T10:16:22.520Z,70.74
2023-02-01T10:17:22.343Z,71.54
2023-02-01T10:18:22.324Z,68.96
2023-02-01T10:19:22.320Z,69.77
2023-02-01T10:20:22.729Z,70.90
2023-02-01T10:21:22.298Z,70.42
2023-02-01T10:22:22.293Z,70.58
2023-02-01T10:23:33.337Z,71.22
2023-02-01T10:24:24.274Z,70.90
2023-02-01T10:25:22.273Z,69.29
2023-02-01T10:26:22.327Z,69.77
2023-02-01T10:27:22.237Z,69.93
2023-02-01T10:28:22.236Z,71.54
2023-02-01T10:29:22.226Z,68.96
2023-02-01T10:30:22.810Z,69.61
2023-02-01T10:31:22.328Z,69.13
2023-02-01T10:32:22.206Z,69.77
2023-02-01T10:33:22.182Z,71.06
2023-02-01T10:34:22.175Z,72.35
2023-02-01T10:35:22.180Z,71.22
2023-02-01T10:36:22.153Z,72.03
2023-02-01T10:37:22.145Z,71.38
2023-02-01T10:38:22.139Z,70.42
2023-02-01T10:39:22.193Z,71.06
2023-02-01T10:40:22.522Z,71.06
2023-02-01T10:41:22.114Z,69.61
2023-02-01T10:42:22.093Z,70.58
2023-02-01T10:43:22.084Z,71.22
2023-02-01T10:44:22.071Z,69.93
2023-02-01T10:45:22.072Z,70.58
2023-02-01T10:46:22.147Z,68.96
2023-02-01T10:47:22.047Z,69.77
2023-02-01T10:48:22.037Z,71.06
2023-02-01T10:49:22.056Z,70.09
2023-02-01T10:50:22.350Z,69.93
2023-02-01T10:51:22.007Z,69.93
2023-02-01T10:52:21.996Z,70.42
2023-02-01T10:53:21.983Z,70.90
2023-02-01T10:54:21.970Z,70.90
2023-02-01T10:55:21.974Z,67.68
2023-02-01T10:56:21.948Z,69.93
2023-02-01T10:57:21.982Z,69.61
2023-02-01T10:58:21.966Z,70.58
2023-02-01T10:59:21.939Z,71.87
2023-02-01T11:00:22.456Z,69.77
2023-02-01T11:01:21.958Z,71.54
2023-02-01T11:02:21.898Z,69.13
2023-02-01T11:03:21.908Z,72.83
2023-02-01T11:04:21.901Z,71.06
2023-02-01T11:05:21.914Z,71.22
2023-02-01T11:06:21.848Z,69.93
2023-02-01T11:07:21.835Z,70.90
2023-02-01T11:08:21.838Z,70.90
2023-02-01T11:09:21.825Z,71.38
2023-02-01T11:10:22.139Z,71.06
2023-02-01T11:11:21.802Z,70.25
2023-02-01T11:12:21.797Z,71.70
2023-02-01T11:13:21.771Z,71.06
2023-02-01T11:14:21.768Z,70.58
2023-02-01T11:15:22.417Z,71.06
2023-02-01T11:16:21.803Z,69.61
2023-02-01T11:17:21.750Z,69.29
2023-02-01T11:18:22.728Z,70.25
2023-02-01T11:19:21.725Z,69.13
2023-02-01T11:20:21.734Z,68.96
2023-02-01T11:21:21.685Z,68.96
2023-02-01T11:22:21.699Z,68.64
2023-02-01T11:23:21.668Z,69.93
2023-02-01T11:24:21.669Z,71.06
2023-02-01T11:25:22.086Z,69.29
2023-02-01T11:26:21.703Z,69.77
2023-02-01T11:27:27.195Z,71.87
2023-02-01T11:28:23.624Z,68.64
2023-02-01T11:29:21.605Z,69.61
2023-02-01T11:30:21.653Z,70.90
2023-02-01T11:31:21.674Z,71.22
2023-02-01T11:32:21.579Z,70.42
2023-02-01T11:33:21.572Z,70.42
2023-02-01T11:34:21.558Z,70.58
2023-02-01T11:35:21.956Z,69.93
2023-02-01T11:36:21.552Z,70.42
2023-02-01T11:37:21.536Z,69.61
2023-02-01T11:38:21.514Z,69.45
2023-02-01T11:39:21.513Z,68.48
2023-02-01T11:40:21.724Z,69.45
2023-02-01T11:41:21.489Z,70.42
2023-02-01T11:42:21.479Z,69.45
2023-02-01T11:43:21.464Z,70.58
2023-02-01T11:44:21.453Z,69.45
2023-02-01T11:45:21.478Z,69.61
2023-02-01T11:46:21.457Z,68.64
2023-02-01T11:47:21.435Z,70.25
2023-02-01T11:48:26.831Z,69.77
2023-02-01T11:49:23.405Z,70.90
2023-02-01T11:50:21.849Z,71.70
2023-02-01T11:51:21.393Z,71.70
2023-02-01T11:52:21.386Z,69.13
2023-02-01T11:53:21.373Z,70.25
2023-02-01T11:54:21.356Z,71.22
2023-02-01T11:55:21.375Z,71.06
2023-02-01T11:56:21.339Z,70.58
2023-02-01T11:57:21.326Z,69.93
2023-02-01T11:58:21.312Z,70.58
2023-02-01T11:59:21.314Z,71.06
2023-02-01T12:00:21.891Z,70.25
2023-02-01T12:01:21.297Z,70.74
2023-02-01T12:02:21.360Z,70.09
2023-02-01T12:03:21.304Z,69.93
2023-02-01T12:04:21.257Z,70.42
2023-02-01T12:05:21.269Z,70.09
2023-02-01T12:06:21.238Z,71.22
2023-02-01T12:07:21.237Z,70.42
2023-02-01T12:08:21.222Z,71.06
2023-02-01T12:09:21.208Z,69.93
2023-02-01T12:10:21.651Z,69.77
2023-02-01T12:11:21.194Z,70.58
2023-02-01T12:12:21.185Z,70.42
2023-02-01T12:13:21.191Z,69.61
2023-02-01T12:14:22.160Z,69.45
2023-02-01T12:15:21.165Z,71.22
2023-02-01T12:16:21.178Z,71.06
2023-02-01T12:17:21.138Z,69.93
2023-02-01T12:18:21.119Z,71.06
2023-02-01T12:19:21.107Z,70.42
2023-02-01T12:20:21.185Z,68.80
2023-02-01T12:21:21.093Z,69.29
2023-02-01T12:22:21.076Z,69.93
2023-02-01T12:23:21.072Z,71.06
2023-02-01T12:24:21.061Z,71.38
2023-02-01T12:25:21.070Z,71.06
2023-02-01T12:26:21.088Z,70.58
2023-02-01T12:27:21.027Z,70.58
2023-02-01T12:28:21.022Z,71.22
2023-02-01T12:29:21.016Z,71.54
2023-02-01T12:30:21.228Z,71.22
2023-02-01T12:31:21.038Z,71.38
2023-02-01T12:32:20.980Z,70.09
2023-02-01T12:33:20.987Z,70.09
2023-02-01T12:34:20.959Z,69.93
2023-02-01T12:35:20.976Z,69.93
2023-02-01T12:36:20.961Z,70.90
2023-02-01T12:37:20.937Z,70.09
2023-02-01T12:38:20.978Z,71.22
2023-02-01T12:39:20.920Z,70.74
2023-02-01T12:40:20.920Z,71.38
2023-02-01T12:41:20.895Z,70.90
2023-02-01T12:42:20.891Z,70.42
2023-02-01T12:43:20.908Z,70.25
2023-02-01T12:44:20.861Z,70.58
2023-02-01T12:45:20.857Z,67.68
2023-02-01T12:46:20.876Z,68.00
2023-02-01T12:47:20.841Z,70.90
2023-02-01T12:48:20.831Z,69.45
2023-02-01T12:49:20.815Z,69.13
2023-02-01T12:50:20.845Z,69.13
2023-02-01T12:51:20.795Z,68.96
2023-02-01T12:52:20.801Z,69.45
2023-02-01T12:53:20.780Z,69.93
2023-02-01T12:54:20.771Z,70.58
2023-02-01T12:55:20.771Z,68.96
2023-02-01T12:56:20.779Z,68.32